sensor_id;sensor_type;location;lat;lon;timestamp;P1;durP1;ratioP1;P2;durP2;ratioP2
14939;SDS011;11825;51.898;8.202;2024-01-27T00:55:24;13.60;;;4.73;;
14939;SDS011;11825;51.898;8.202;2024-01-27T01:01:01;13.77;;;4.63;;
14939;SDS011;11825;51.898;8.202;2024-01-27T01:06:07;16.50;;;4.40;;
14939;SDS011;11825;51.898;8.202;2024-01-27T01:11:09;12.80;;;4.93;;
14939;SDS011;11825;51.898;8.202;2024-01-27T01:16:15;13.43;;;3.97;;
14939;SDS011;11825;51.898;8.202;2024-01-27T01:21:24;14.20;;;3.80;;
14939;SDS011;11825;51.898;8.202;2024-01-27T01:26:40;13.97;;;4.57;;
14939;SDS011;11825;51.898;8.202;2024-01-27T01:31:56;14.77;;;4.40;;
14939;SDS011;11825;51.898;8.202;2024-01-27T01:37:06;13.17;;;5.00;;
14939;SDS011;11825;51.898;8.202;2024-01-27T01:42:14;19.03;;;4.87;;
14939;SDS011;11825;51.898;8.202;2024-01-27T01:47:29;12.40;;;3.90;;
14939;SDS011;11825;51.898;8.202;2024-01-27T01:52:38;10.47;;;4.40;;
14939;SDS011;11825;51.898;8.202;2024-01-27T01:57:51;15.03;;;4.80;;
14939;SDS011;11825;51.898;8.202;2024-01-27T02:02:57;17.17;;;4.73;;
14939;SDS011;11825;51.898;8.202;2024-01-27T02:08:03;10.33;;;4.00;;
14939;SDS011;11825;51.898;8.202;2024-01-27T02:13:24;17.23;;;5.47;;
14939;SDS011;11825;51.898;8.202;2024-01-27T02:18:39;17.20;;;4.67;;
14939;SDS011;11825;51.898;8.202;2024-01-27T02:23:56;10.73;;;4.60;;
14939;SDS011;11825;51.898;8.202;2024-01-27T02:29:07;11.93;;;4.30;;
14939;SDS011;11825;51.898;8.202;2024-01-27T02:34:12;6.73;;;3.57;;
14939;SDS011;11825;51.898;8.202;2024-01-27T02:39:18;17.17;;;5.80;;
14939;SDS011;11825;51.898;8.202;2024-01-27T02:44:26;13.57;;;4.77;;
14939;SDS011;11825;51.898;8.202;2024-01-27T02:49:32;9.73;;;4.40;;
14939;SDS011;11825;51.898;8.202;2024-01-27T02:54:51;15.07;;;5.77;;
14939;SDS011;11825;51.898;8.202;2024-01-27T02:59:55;14.37;;;5.30;;
14939;SDS011;11825;51.898;8.202;2024-01-27T03:05:11;18.40;;;5.03;;
14939;SDS011;11825;51.898;8.202;2024-01-27T03:10:22;19.73;;;6.60;;
14939;SDS011;11825;51.898;8.202;2024-01-27T03:15:28;13.97;;;5.17;;
14939;SDS011;11825;51.898;8.202;2024-01-27T03:20:53;20.97;;;6.17;;
14939;SDS011;11825;51.898;8.202;2024-01-27T03:25:55;22.93;;;5.53;;
14939;SDS011;11825;51.898;8.202;2024-01-27T03:31:00;15.23;;;5.50;;
14939;SDS011;11825;51.898;8.202;2024-01-27T03:36:02;16.33;;;6.27;;
14939;SDS011;11825;51.898;8.202;2024-01-27T03:41:07;15.73;;;5.27;;
14939;SDS011;11825;51.898;8.202;2024-01-27T03:46:12;13.47;;;5.97;;
14939;SDS011;11825;51.898;8.202;2024-01-27T03:51:16;13.20;;;5.50;;
14939;SDS011;11825;51.898;8.202;2024-01-27T03:56:22;12.63;;;4.90;;
14939;SDS011;11825;51.898;8.202;2024-01-27T04:01:25;13.67;;;5.57;;
14939;SDS011;11825;51.898;8.202;2024-01-27T04:06:35;16.90;;;5.10;;
14939;SDS011;11825;51.898;8.202;2024-01-27T04:11:45;13.07;;;5.50;;
14939;SDS011;11825;51.898;8.202;2024-01-27T04:16:59;20.23;;;6.17;;
14939;SDS011;11825;51.898;8.202;2024-01-27T04:22:04;12.10;;;6.67;;
14939;SDS011;11825;51.898;8.202;2024-01-27T04:27:11;11.50;;;5.50;;
14939;SDS011;11825;51.898;8.202;2024-01-27T04:32:20;12.40;;;5.53;;
14939;SDS011;11825;51.898;8.202;2024-01-27T04:37:26;16.93;;;6.40;;
14939;SDS011;11825;51.898;8.202;2024-01-27T04:42:45;15.20;;;7.00;;
14939;SDS011;11825;51.898;8.202;2024-01-27T04:47:57;14.93;;;8.60;;
14939;SDS011;11825;51.898;8.202;2024-01-27T04:53:09;14.37;;;6.17;;
14939;SDS011;11825;51.898;8.202;2024-01-27T04:58:20;13.70;;;7.07;;
14939;SDS011;11825;51.898;8.202;2024-01-27T05:03:26;12.10;;;7.07;;
14939;SDS011;11825;51.898;8.202;2024-01-27T05:08:31;15.73;;;7.70;;
14939;SDS011;11825;51.898;8.202;2024-01-27T05:13:39;17.07;;;6.90;;
14939;SDS011;11825;51.898;8.202;2024-01-27T05:18:44;20.43;;;7.07;;
14939;SDS011;11825;51.898;8.202;2024-01-27T05:23:58;13.43;;;8.37;;
14939;SDS011;11825;51.898;8.202;2024-01-27T05:29:03;15.07;;;8.20;;
14939;SDS011;11825;51.898;8.202;2024-01-27T05:34:10;14.00;;;7.00;;
14939;SDS011;11825;51.898;8.202;2024-01-27T05:39:19;17.70;;;8.47;;
14939;SDS011;11825;51.898;8.202;2024-01-27T05:44:24;15.10;;;7.17;;
14939;SDS011;11825;51.898;8.202;2024-01-27T05:49:32;21.87;;;8.40;;
14939;SDS011;11825;51.898;8.202;2024-01-27T05:54:39;17.40;;;8.63;;
14939;SDS011;11825;51.898;8.202;2024-01-27T05:59:47;17.40;;;8.70;;
14939;SDS011;11825;51.898;8.202;2024-01-27T06:05:06;13.23;;;8.70;;
14939;SDS011;11825;51.898;8.202;2024-01-27T06:10:14;15.50;;;7.97;;
14939;SDS011;11825;51.898;8.202;2024-01-27T06:15:33;15.17;;;8.87;;
14939;SDS011;11825;51.898;8.202;2024-01-27T06:20:38;13.20;;;7.97;;
14939;SDS011;11825;51.898;8.202;2024-01-27T06:25:46;15.37;;;8.20;;
14939;SDS011;11825;51.898;8.202;2024-01-27T06:30:54;24.13;;;8.13;;
14939;SDS011;11825;51.898;8.202;2024-01-27T06:35:58;16.10;;;8.97;;
14939;SDS011;11825;51.898;8.202;2024-01-27T06:41:03;26.40;;;9.87;;
14939;SDS011;11825;51.898;8.202;2024-01-27T06:46:08;20.17;;;9.77;;
14939;SDS011;11825;51.898;8.202;2024-01-27T06:51:14;18.03;;;9.30;;
14939;SDS011;11825;51.898;8.202;2024-01-27T06:56:19;20.73;;;8.83;;
14939;SDS011;11825;51.898;8.202;2024-01-27T07:01:27;17.00;;;8.70;;
14939;SDS011;11825;51.898;8.202;2024-01-27T07:06:35;18.63;;;10.27;;
14939;SDS011;11825;51.898;8.202;2024-01-27T07:11:40;19.60;;;8.90;;
14939;SDS011;11825;51.898;8.202;2024-01-27T07:16:50;17.63;;;8.70;;
14939;SDS011;11825;51.898;8.202;2024-01-27T07:21:57;13.37;;;8.60;;
14939;SDS011;11825;51.898;8.202;2024-01-27T07:27:02;17.47;;;9.03;;
14939;SDS011;11825;51.898;8.202;2024-01-27T07:32:16;21.20;;;9.53;;
14939;SDS011;11825;51.898;8.202;2024-01-27T07:37:23;16.33;;;7.87;;
14939;SDS011;11825;51.898;8.202;2024-01-27T07:42:33;16.27;;;8.87;;
14939;SDS011;11825;51.898;8.202;2024-01-27T07:47:48;14.03;;;9.27;;
14939;SDS011;11825;51.898;8.202;2024-01-27T07:52:51;20.97;;;10.30;;
14939;SDS011;11825;51.898;8.202;2024-01-27T07:57:55;19.60;;;9.80;;
14939;SDS011;11825;51.898;8.202;2024-01-27T08:03:02;20.43;;;9.73;;
14939;SDS011;11825;51.898;8.202;2024-01-27T08:08:06;17.60;;;10.20;;
14939;SDS011;11825;51.898;8.202;2024-01-27T08:13:08;24.60;;;12.43;;
14939;SDS011;11825;51.898;8.202;2024-01-27T08:18:14;20.43;;;13.00;;
14939;SDS011;11825;51.898;8.202;2024-01-27T08:23:28;28.83;;;13.33;;
14939;SDS011;11825;51.898;8.202;2024-01-27T10:02:55;10.93;;;5.77;;
14939;SDS011;11825;51.898;8.202;2024-01-27T11:22:29;13.50;;;5.63;;
14939;SDS011;11825;51.898;8.202;2024-01-27T11:28:15;15.47;;;5.63;;
14939;SDS011;11825;51.898;8.202;2024-01-27T11:34:19;11.50;;;5.33;;
14939;SDS011;11825;51.898;8.202;2024-01-27T11:45:43;11.57;;;4.77;;
14939;SDS011;11825;51.898;8.202;2024-01-27T11:51:13;17.27;;;5.40;;
14939;SDS011;11825;51.898;8.202;2024-01-27T12:03:38;12.83;;;5.00;;
14939;SDS011;11825;51.898;8.202;2024-01-27T12:09:05;12.20;;;5.50;;
14939;SDS011;11825;51.898;8.202;2024-01-27T12:21:18;11.47;;;5.23;;
14939;SDS011;11825;51.898;8.202;2024-01-27T12:27:01;8.93;;;4.37;;
14939;SDS011;11825;51.898;8.202;2024-01-27T12:38:00;8.70;;;4.30;;
14939;SDS011;11825;51.898;8.202;2024-01-27T12:43:48;13.17;;;4.47;;
14939;SDS011;11825;51.898;8.202;2024-01-27T12:49:11;7.37;;;3.80;;
14939;SDS011;11825;51.898;8.202;2024-01-27T12:54:33;13.20;;;4.20;;
14939;SDS011;11825;51.898;8.202;2024-01-27T12:59:47;10.57;;;4.53;;
14939;SDS011;11825;51.898;8.202;2024-01-27T13:05:01;8.07;;;4.37;;
14939;SDS011;11825;51.898;8.202;2024-01-27T13:10:19;11.60;;;4.63;;
14939;SDS011;11825;51.898;8.202;2024-01-27T13:15:54;15.00;;;3.40;;
14939;SDS011;11825;51.898;8.202;2024-01-27T13:21:13;10.87;;;4.00;;
14939;SDS011;11825;51.898;8.202;2024-01-27T13:32:06;9.10;;;3.30;;
14939;SDS011;11825;51.898;8.202;2024-01-27T13:37:19;6.43;;;2.70;;
14939;SDS011;11825;51.898;8.202;2024-01-27T13:42:51;12.10;;;3.63;;
14939;SDS011;11825;51.898;8.202;2024-01-27T13:48:15;10.50;;;3.80;;
14939;SDS011;11825;51.898;8.202;2024-01-27T13:53:42;11.30;;;4.17;;
14939;SDS011;11825;51.898;8.202;2024-01-27T13:59:22;8.90;;;3.37;;
14939;SDS011;11825;51.898;8.202;2024-01-27T14:04:46;11.03;;;4.03;;
14939;SDS011;11825;51.898;8.202;2024-01-27T14:10:07;9.23;;;3.00;;
14939;SDS011;11825;51.898;8.202;2024-01-27T14:21:10;6.80;;;3.17;;
14939;SDS011;11825;51.898;8.202;2024-01-27T20:44:56;10.87;;;7.63;;
14939;SDS011;11825;51.898;8.202;2024-01-27T20:50:43;18.73;;;8.73;;
14939;SDS011;11825;51.898;8.202;2024-01-27T20:55:51;13.70;;;9.37;;
14939;SDS011;11825;51.898;8.202;2024-01-27T21:01:15;15.03;;;7.57;;
14939;SDS011;11825;51.898;8.202;2024-01-27T21:13:09;13.73;;;9.20;;
14939;SDS011;11825;51.898;8.202;2024-01-27T21:18:46;13.13;;;8.77;;
14939;SDS011;11825;51.898;8.202;2024-01-27T21:24:08;13.57;;;9.30;;
14939;SDS011;11825;51.898;8.202;2024-01-27T21:29:23;23.47;;;11.70;;
14939;SDS011;11825;51.898;8.202;2024-01-27T21:34:39;17.30;;;9.60;;
14939;SDS011;11825;51.898;8.202;2024-01-27T21:40:45;13.97;;;9.80;;
14939;SDS011;11825;51.898;8.202;2024-01-27T21:51:55;16.67;;;10.37;;
14939;SDS011;11825;51.898;8.202;2024-01-27T21:57:46;17.60;;;12.13;;
14939;SDS011;11825;51.898;8.202;2024-01-27T22:03:04;19.47;;;12.77;;
14939;SDS011;11825;51.898;8.202;2024-01-27T22:08:37;20.10;;;12.63;;
14939;SDS011;11825;51.898;8.202;2024-01-27T22:14:01;17.23;;;11.70;;
14939;SDS011;11825;51.898;8.202;2024-01-27T22:19:21;23.17;;;12.33;;
14939;SDS011;11825;51.898;8.202;2024-01-27T22:24:45;21.00;;;12.03;;
14939;SDS011;11825;51.898;8.202;2024-01-27T22:30:28;14.23;;;11.07;;
14939;SDS011;11825;51.898;8.202;2024-01-27T22:35:51;18.80;;;10.40;;
14939;SDS011;11825;51.898;8.202;2024-01-27T22:41:31;20.93;;;13.47;;
14939;SDS011;11825;51.898;8.202;2024-01-27T22:53:07;18.50;;;14.93;;
14939;SDS011;11825;51.898;8.202;2024-01-27T22:58:58;19.03;;;13.73;;
14939;SDS011;11825;51.898;8.202;2024-01-27T23:04:10;27.73;;;17.53;;
14939;SDS011;11825;51.898;8.202;2024-01-27T23:09:22;21.97;;;17.33;;
14939;SDS011;11825;51.898;8.202;2024-01-27T23:15:08;25.90;;;18.47;;
14939;SDS011;11825;51.898;8.202;2024-01-27T23:20:17;28.80;;;19.90;;
14939;SDS011;11825;51.898;8.202;2024-01-27T23:26:00;24.83;;;18.63;;
14939;SDS011;11825;51.898;8.202;2024-01-27T23:31:17;27.20;;;19.43;;
14939;SDS011;11825;51.898;8.202;2024-01-27T23:37:15;20.03;;;16.57;;
14939;SDS011;11825;51.898;8.202;2024-01-27T23:42:32;21.80;;;16.77;;
14939;SDS011;11825;51.898;8.202;2024-01-27T23:48:12;23.87;;;15.63;;
14939;SDS011;11825;51.898;8.202;2024-01-27T23:53:34;19.73;;;15.27;;
14939;SDS011;11825;51.898;8.202;2024-01-27T23:58:58;21.80;;;15.23;;
